sensor_id;sensor_type;location;lat;lon;timestamp;P1;durP1;ratioP1;P2;durP2;ratioP2
61709;SDS011;47633;51.494;5.386;2023-07-09T00:01:13;7.93;;;5.60;;
61709;SDS011;47633;51.494;5.386;2023-07-09T00:03:42;8.95;;;5.57;;
61709;SDS011;47633;51.494;5.386;2023-07-09T00:06:08;9.00;;;6.20;;
61709;SDS011;47633;51.494;5.386;2023-07-09T00:08:34;8.82;;;6.22;;
61709;SDS011;47633;51.494;5.386;2023-07-09T00:10:59;9.57;;;6.25;;
61709;SDS011;47633;51.494;5.386;2023-07-09T00:13:25;9.48;;;6.70;;
61709;SDS011;47633;51.494;5.386;2023-07-09T00:16:00;9.02;;;6.13;;
61709;SDS011;47633;51.494;5.386;2023-07-09T00:18:27;9.75;;;5.97;;
61709;SDS011;47633;51.494;5.386;2023-07-09T00:20:53;10.85;;;6.32;;
61709;SDS011;47633;51.494;5.386;2023-07-09T00:23:18;9.25;;;6.15;;
61709;SDS011;47633;51.494;5.386;2023-07-09T00:25:44;10.60;;;5.90;;
61709;SDS011;47633;51.494;5.386;2023-07-09T00:28:13;8.35;;;5.70;;
61709;SDS011;47633;51.494;5.386;2023-07-09T00:30:39;7.45;;;5.50;;
61709;SDS011;47633;51.494;5.386;2023-07-09T00:33:05;8.63;;;6.43;;
61709;SDS011;47633;51.494;5.386;2023-07-09T00:35:30;8.23;;;5.77;;
61709;SDS011;47633;51.494;5.386;2023-07-09T00:37:55;10.23;;;6.10;;
61709;SDS011;47633;51.494;5.386;2023-07-09T00:40:25;9.18;;;5.65;;
61709;SDS011;47633;51.494;5.386;2023-07-09T00:42:52;10.15;;;6.05;;
61709;SDS011;47633;51.494;5.386;2023-07-09T00:45:21;8.00;;;5.70;;
61709;SDS011;47633;51.494;5.386;2023-07-09T00:50:33;8.98;;;6.18;;
61709;SDS011;47633;51.494;5.386;2023-07-09T00:53:00;8.95;;;5.93;;
61709;SDS011;47633;51.494;5.386;2023-07-09T00:55:36;9.07;;;5.93;;
61709;SDS011;47633;51.494;5.386;2023-07-09T00:58:06;10.45;;;5.97;;
61709;SDS011;47633;51.494;5.386;2023-07-09T01:00:36;8.90;;;6.00;;
61709;SDS011;47633;51.494;5.386;2023-07-09T01:03:11;8.75;;;5.93;;
61709;SDS011;47633;51.494;5.386;2023-07-09T01:05:43;8.13;;;5.78;;
61709;SDS011;47633;51.494;5.386;2023-07-09T01:08:10;9.57;;;5.60;;
61709;SDS011;47633;51.494;5.386;2023-07-09T01:10:37;8.75;;;6.03;;
61709;SDS011;47633;51.494;5.386;2023-07-09T01:13:05;8.43;;;5.78;;
61709;SDS011;47633;51.494;5.386;2023-07-09T01:15:33;9.82;;;6.18;;
61709;SDS011;47633;51.494;5.386;2023-07-09T01:17:59;7.50;;;5.43;;
61709;SDS011;47633;51.494;5.386;2023-07-09T01:20:26;9.13;;;5.75;;
61709;SDS011;47633;51.494;5.386;2023-07-09T01:22:52;10.70;;;5.85;;
61709;SDS011;47633;51.494;5.386;2023-07-09T01:25:22;8.13;;;5.57;;
61709;SDS011;47633;51.494;5.386;2023-07-09T01:27:48;8.32;;;5.95;;
61709;SDS011;47633;51.494;5.386;2023-07-09T01:30:16;9.52;;;6.03;;
61709;SDS011;47633;51.494;5.386;2023-07-09T01:32:47;7.50;;;5.65;;
61709;SDS011;47633;51.494;5.386;2023-07-09T01:35:15;10.02;;;6.00;;
61709;SDS011;47633;51.494;5.386;2023-07-09T01:37:42;8.40;;;5.70;;
61709;SDS011;47633;51.494;5.386;2023-07-09T01:40:08;8.60;;;5.93;;
61709;SDS011;47633;51.494;5.386;2023-07-09T01:42:35;9.32;;;6.07;;
61709;SDS011;47633;51.494;5.386;2023-07-09T01:45:04;8.40;;;6.03;;
61709;SDS011;47633;51.494;5.386;2023-07-09T01:47:30;7.95;;;5.68;;
61709;SDS011;47633;51.494;5.386;2023-07-09T01:49:55;8.65;;;5.78;;
61709;SDS011;47633;51.494;5.386;2023-07-09T01:52:22;7.05;;;5.50;;
61709;SDS011;47633;51.494;5.386;2023-07-09T01:54:50;8.55;;;5.65;;
61709;SDS011;47633;51.494;5.386;2023-07-09T01:57:17;7.78;;;5.47;;
61709;SDS011;47633;51.494;5.386;2023-07-09T01:59:47;8.15;;;5.93;;
61709;SDS011;47633;51.494;5.386;2023-07-09T02:02:13;9.20;;;6.47;;
61709;SDS011;47633;51.494;5.386;2023-07-09T02:04:43;8.57;;;5.53;;
61709;SDS011;47633;51.494;5.386;2023-07-09T02:07:16;7.55;;;5.50;;
61709;SDS011;47633;51.494;5.386;2023-07-09T02:09:43;7.45;;;5.45;;
61709;SDS011;47633;51.494;5.386;2023-07-09T02:12:08;7.50;;;5.47;;
61709;SDS011;47633;51.494;5.386;2023-07-09T02:14:35;8.90;;;6.20;;
61709;SDS011;47633;51.494;5.386;2023-07-09T02:17:01;8.18;;;6.03;;
61709;SDS011;47633;51.494;5.386;2023-07-09T02:19:27;8.45;;;5.97;;
61709;SDS011;47633;51.494;5.386;2023-07-09T02:21:53;8.52;;;6.30;;
61709;SDS011;47633;51.494;5.386;2023-07-09T02:24:19;7.63;;;6.05;;
61709;SDS011;47633;51.494;5.386;2023-07-09T02:26:44;8.02;;;5.57;;
61709;SDS011;47633;51.494;5.386;2023-07-09T02:29:10;7.75;;;5.70;;
61709;SDS011;47633;51.494;5.386;2023-07-09T02:31:35;8.70;;;5.40;;
61709;SDS011;47633;51.494;5.386;2023-07-09T02:34:01;8.98;;;5.60;;
61709;SDS011;47633;51.494;5.386;2023-07-09T02:36:28;9.20;;;5.53;;
61709;SDS011;47633;51.494;5.386;2023-07-09T02:38:53;9.25;;;6.10;;
61709;SDS011;47633;51.494;5.386;2023-07-09T02:41:18;8.00;;;5.80;;
61709;SDS011;47633;51.494;5.386;2023-07-09T02:43:43;7.32;;;5.45;;
61709;SDS011;47633;51.494;5.386;2023-07-09T02:46:09;8.68;;;6.20;;
61709;SDS011;47633;51.494;5.386;2023-07-09T02:48:34;6.95;;;5.15;;
61709;SDS011;47633;51.494;5.386;2023-07-09T02:51:00;7.82;;;5.88;;
61709;SDS011;47633;51.494;5.386;2023-07-09T02:53:25;9.23;;;6.23;;
61709;SDS011;47633;51.494;5.386;2023-07-09T02:55:52;8.18;;;5.60;;
61709;SDS011;47633;51.494;5.386;2023-07-09T02:58:17;8.48;;;6.35;;
61709;SDS011;47633;51.494;5.386;2023-07-09T03:00:42;8.65;;;6.05;;
61709;SDS011;47633;51.494;5.386;2023-07-09T03:03:08;9.75;;;5.95;;
61709;SDS011;47633;51.494;5.386;2023-07-09T03:05:33;8.18;;;5.85;;
61709;SDS011;47633;51.494;5.386;2023-07-09T03:07:59;8.73;;;6.10;;
61709;SDS011;47633;51.494;5.386;2023-07-09T03:10:24;9.35;;;6.05;;
61709;SDS011;47633;51.494;5.386;2023-07-09T03:12:50;8.50;;;6.00;;
61709;SDS011;47633;51.494;5.386;2023-07-09T03:15:15;9.45;;;6.13;;
61709;SDS011;47633;51.494;5.386;2023-07-09T03:17:40;8.88;;;6.10;;
61709;SDS011;47633;51.494;5.386;2023-07-09T03:20:06;8.00;;;5.88;;
61709;SDS011;47633;51.494;5.386;2023-07-09T03:22:32;9.18;;;5.93;;
61709;SDS011;47633;51.494;5.386;2023-07-09T03:24:58;9.63;;;6.28;;
61709;SDS011;47633;51.494;5.386;2023-07-09T03:27:23;8.90;;;6.23;;
61709;SDS011;47633;51.494;5.386;2023-07-09T03:29:48;8.90;;;6.53;;
61709;SDS011;47633;51.494;5.386;2023-07-09T03:32:14;8.57;;;6.27;;
61709;SDS011;47633;51.494;5.386;2023-07-09T03:34:39;9.30;;;6.22;;
61709;SDS011;47633;51.494;5.386;2023-07-09T03:37:04;9.48;;;6.43;;
61709;SDS011;47633;51.494;5.386;2023-07-09T03:39:30;8.40;;;6.32;;
61709;SDS011;47633;51.494;5.386;2023-07-09T03:41:55;8.70;;;6.65;;
61709;SDS011;47633;51.494;5.386;2023-07-09T03:44:20;9.40;;;6.63;;
61709;SDS011;47633;51.494;5.386;2023-07-09T03:46:45;9.10;;;5.93;;
61709;SDS011;47633;51.494;5.386;2023-07-09T03:49:11;10.05;;;6.70;;
61709;SDS011;47633;51.494;5.386;2023-07-09T03:51:36;8.68;;;6.68;;
61709;SDS011;47633;51.494;5.386;2023-07-09T03:54:02;9.95;;;6.50;;
61709;SDS011;47633;51.494;5.386;2023-07-09T03:56:27;8.75;;;6.50;;
61709;SDS011;47633;51.494;5.386;2023-07-09T03:58:53;9.20;;;6.32;;
61709;SDS011;47633;51.494;5.386;2023-07-09T04:01:18;10.15;;;6.38;;
61709;SDS011;47633;51.494;5.386;2023-07-09T04:03:43;8.90;;;6.03;;
61709;SDS011;47633;51.494;5.386;2023-07-09T04:06:09;8.30;;;6.45;;
61709;SDS011;47633;51.494;5.386;2023-07-09T04:08:34;8.60;;;6.35;;
61709;SDS011;47633;51.494;5.386;2023-07-09T04:11:00;9.13;;;6.43;;
61709;SDS011;47633;51.494;5.386;2023-07-09T04:13:27;8.23;;;6.18;;
61709;SDS011;47633;51.494;5.386;2023-07-09T04:15:53;8.82;;;6.80;;
61709;SDS011;47633;51.494;5.386;2023-07-09T04:18:18;8.90;;;6.35;;
61709;SDS011;47633;51.494;5.386;2023-07-09T04:20:47;7.97;;;6.38;;
61709;SDS011;47633;51.494;5.386;2023-07-09T04:23:14;11.20;;;7.30;;
61709;SDS011;47633;51.494;5.386;2023-07-09T04:25:39;8.45;;;6.63;;
61709;SDS011;47633;51.494;5.386;2023-07-09T04:28:05;9.32;;;6.45;;
61709;SDS011;47633;51.494;5.386;2023-07-09T04:30:31;9.95;;;6.75;;
61709;SDS011;47633;51.494;5.386;2023-07-09T04:32:56;7.80;;;6.20;;
61709;SDS011;47633;51.494;5.386;2023-07-09T04:35:22;8.45;;;6.57;;
61709;SDS011;47633;51.494;5.386;2023-07-09T04:37:48;9.57;;;6.68;;
61709;SDS011;47633;51.494;5.386;2023-07-09T04:40:14;8.00;;;6.30;;
61709;SDS011;47633;51.494;5.386;2023-07-09T04:42:40;9.10;;;6.45;;
61709;SDS011;47633;51.494;5.386;2023-07-09T04:45:06;8.23;;;6.18;;
61709;SDS011;47633;51.494;5.386;2023-07-09T04:47:33;9.85;;;6.60;;
61709;SDS011;47633;51.494;5.386;2023-07-09T04:49:59;8.27;;;6.35;;
61709;SDS011;47633;51.494;5.386;2023-07-09T04:52:24;12.33;;;6.90;;
61709;SDS011;47633;51.494;5.386;2023-07-09T04:54:49;9.30;;;6.68;;
61709;SDS011;47633;51.494;5.386;2023-07-09T04:57:15;9.00;;;6.80;;
61709;SDS011;47633;51.494;5.386;2023-07-09T04:59:41;8.80;;;6.68;;
61709;SDS011;47633;51.494;5.386;2023-07-09T05:02:06;8.30;;;6.70;;
61709;SDS011;47633;51.494;5.386;2023-07-09T05:04:32;9.80;;;6.70;;
61709;SDS011;47633;51.494;5.386;2023-07-09T05:06:58;9.98;;;6.72;;
61709;SDS011;47633;51.494;5.386;2023-07-09T05:09:23;9.65;;;7.15;;
61709;SDS011;47633;51.494;5.386;2023-07-09T05:11:49;9.52;;;6.60;;
61709;SDS011;47633;51.494;5.386;2023-07-09T05:14:16;9.00;;;6.82;;
61709;SDS011;47633;51.494;5.386;2023-07-09T05:16:42;9.05;;;6.78;;
61709;SDS011;47633;51.494;5.386;2023-07-09T05:19:08;8.38;;;6.55;;
61709;SDS011;47633;51.494;5.386;2023-07-09T05:21:34;9.33;;;7.07;;
61709;SDS011;47633;51.494;5.386;2023-07-09T05:23:59;8.48;;;6.55;;
61709;SDS011;47633;51.494;5.386;2023-07-09T05:26:25;10.60;;;6.95;;
61709;SDS011;47633;51.494;5.386;2023-07-09T05:28:50;10.75;;;7.07;;
61709;SDS011;47633;51.494;5.386;2023-07-09T05:31:15;8.95;;;6.97;;
61709;SDS011;47633;51.494;5.386;2023-07-09T05:33:41;9.50;;;7.32;;
61709;SDS011;47633;51.494;5.386;2023-07-09T05:36:06;10.30;;;6.45;;
61709;SDS011;47633;51.494;5.386;2023-07-09T05:38:32;8.55;;;6.85;;
61709;SDS011;47633;51.494;5.386;2023-07-09T05:41:03;9.13;;;7.13;;
61709;SDS011;47633;51.494;5.386;2023-07-09T05:43:29;9.02;;;6.68;;
61709;SDS011;47633;51.494;5.386;2023-07-09T05:45:55;10.55;;;6.68;;
61709;SDS011;47633;51.494;5.386;2023-07-09T05:48:20;8.90;;;7.15;;
61709;SDS011;47633;51.494;5.386;2023-07-09T05:50:47;9.13;;;6.90;;
61709;SDS011;47633;51.494;5.386;2023-07-09T05:53:14;10.80;;;7.38;;
61709;SDS011;47633;51.494;5.386;2023-07-09T05:55:39;10.30;;;7.10;;
61709;SDS011;47633;51.494;5.386;2023-07-09T05:58:04;9.77;;;6.95;;
61709;SDS011;47633;51.494;5.386;2023-07-09T06:00:30;11.52;;;7.13;;
61709;SDS011;47633;51.494;5.386;2023-07-09T06:02:55;7.87;;;6.53;;
61709;SDS011;47633;51.494;5.386;2023-07-09T06:05:22;9.45;;;6.75;;
61709;SDS011;47633;51.494;5.386;2023-07-09T06:07:47;9.68;;;7.03;;
61709;SDS011;47633;51.494;5.386;2023-07-09T06:10:13;10.40;;;7.15;;
61709;SDS011;47633;51.494;5.386;2023-07-09T06:12:38;10.40;;;6.88;;
61709;SDS011;47633;51.494;5.386;2023-07-09T06:15:05;9.18;;;7.10;;
61709;SDS011;47633;51.494;5.386;2023-07-09T06:17:31;9.25;;;6.38;;
61709;SDS011;47633;51.494;5.386;2023-07-09T06:19:56;8.70;;;6.80;;
61709;SDS011;47633;51.494;5.386;2023-07-09T06:22:21;8.30;;;6.78;;
61709;SDS011;47633;51.494;5.386;2023-07-09T06:24:47;9.48;;;6.47;;
61709;SDS011;47633;51.494;5.386;2023-07-09T06:27:12;7.80;;;6.35;;
61709;SDS011;47633;51.494;5.386;2023-07-09T06:29:37;9.55;;;7.03;;
61709;SDS011;47633;51.494;5.386;2023-07-09T06:32:03;8.85;;;6.65;;
61709;SDS011;47633;51.494;5.386;2023-07-09T06:34:29;10.82;;;6.82;;
61709;SDS011;47633;51.494;5.386;2023-07-09T06:36:55;9.70;;;6.55;;
61709;SDS011;47633;51.494;5.386;2023-07-09T06:39:21;11.43;;;7.38;;
61709;SDS011;47633;51.494;5.386;2023-07-09T06:41:46;9.27;;;7.00;;
61709;SDS011;47633;51.494;5.386;2023-07-09T06:44:12;9.52;;;6.65;;
61709;SDS011;47633;51.494;5.386;2023-07-09T06:46:37;9.43;;;6.18;;
61709;SDS011;47633;51.494;5.386;2023-07-09T06:49:02;9.70;;;6.28;;
61709;SDS011;47633;51.494;5.386;2023-07-09T06:51:30;7.28;;;6.05;;
61709;SDS011;47633;51.494;5.386;2023-07-09T06:53:55;12.07;;;6.10;;
61709;SDS011;47633;51.494;5.386;2023-07-09T06:56:21;8.90;;;6.30;;
61709;SDS011;47633;51.494;5.386;2023-07-09T06:58:47;10.52;;;6.60;;
61709;SDS011;47633;51.494;5.386;2023-07-09T07:01:12;8.07;;;6.22;;
61709;SDS011;47633;51.494;5.386;2023-07-09T07:03:38;11.63;;;6.35;;
61709;SDS011;47633;51.494;5.386;2023-07-09T07:06:04;8.18;;;5.90;;
61709;SDS011;47633;51.494;5.386;2023-07-09T07:08:31;7.93;;;6.15;;
61709;SDS011;47633;51.494;5.386;2023-07-09T07:10:58;11.90;;;6.18;;
61709;SDS011;47633;51.494;5.386;2023-07-09T07:13:29;10.02;;;6.55;;
61709;SDS011;47633;51.494;5.386;2023-07-09T07:15:56;8.88;;;6.50;;
61709;SDS011;47633;51.494;5.386;2023-07-09T07:18:21;10.95;;;6.18;;
61709;SDS011;47633;51.494;5.386;2023-07-09T07:20:47;10.55;;;6.70;;
61709;SDS011;47633;51.494;5.386;2023-07-09T07:23:12;8.25;;;5.50;;
61709;SDS011;47633;51.494;5.386;2023-07-09T07:25:38;9.45;;;6.90;;
61709;SDS011;47633;51.494;5.386;2023-07-09T07:28:03;8.35;;;5.93;;
61709;SDS011;47633;51.494;5.386;2023-07-09T07:30:28;8.80;;;6.18;;
61709;SDS011;47633;51.494;5.386;2023-07-09T07:32:54;7.75;;;5.65;;
61709;SDS011;47633;51.494;5.386;2023-07-09T07:35:19;7.15;;;5.55;;
61709;SDS011;47633;51.494;5.386;2023-07-09T07:37:45;9.13;;;5.90;;
61709;SDS011;47633;51.494;5.386;2023-07-09T07:40:10;8.25;;;6.10;;
61709;SDS011;47633;51.494;5.386;2023-07-09T07:42:36;9.18;;;6.15;;
61709;SDS011;47633;51.494;5.386;2023-07-09T07:45:02;10.55;;;5.78;;
61709;SDS011;47633;51.494;5.386;2023-07-09T07:47:29;9.60;;;5.40;;
61709;SDS011;47633;51.494;5.386;2023-07-09T07:49:55;7.40;;;5.32;;
61709;SDS011;47633;51.494;5.386;2023-07-09T07:52:21;7.28;;;5.43;;
61709;SDS011;47633;51.494;5.386;2023-07-09T07:54:47;7.38;;;5.38;;
61709;SDS011;47633;51.494;5.386;2023-07-09T07:57:13;7.63;;;5.75;;
61709;SDS011;47633;51.494;5.386;2023-07-09T07:59:38;11.13;;;6.18;;
61709;SDS011;47633;51.494;5.386;2023-07-09T08:02:04;7.43;;;5.50;;
61709;SDS011;47633;51.494;5.386;2023-07-09T08:04:31;8.32;;;5.13;;
61709;SDS011;47633;51.494;5.386;2023-07-09T08:06:57;9.88;;;6.25;;
61709;SDS011;47633;51.494;5.386;2023-07-09T08:09:23;7.28;;;5.72;;
61709;SDS011;47633;51.494;5.386;2023-07-09T08:11:49;7.75;;;5.25;;
61709;SDS011;47633;51.494;5.386;2023-07-09T08:14:15;8.70;;;5.82;;
61709;SDS011;47633;51.494;5.386;2023-07-09T08:16:40;8.88;;;5.63;;
61709;SDS011;47633;51.494;5.386;2023-07-09T08:19:06;8.50;;;6.25;;
61709;SDS011;47633;51.494;5.386;2023-07-09T08:21:31;8.57;;;5.47;;
61709;SDS011;47633;51.494;5.386;2023-07-09T08:23:57;9.35;;;5.60;;
61709;SDS011;47633;51.494;5.386;2023-07-09T08:26:22;7.97;;;5.90;;
61709;SDS011;47633;51.494;5.386;2023-07-09T08:28:49;9.07;;;6.18;;
61709;SDS011;47633;51.494;5.386;2023-07-09T08:31:15;8.73;;;5.20;;
61709;SDS011;47633;51.494;5.386;2023-07-09T08:33:40;7.63;;;5.25;;
61709;SDS011;47633;51.494;5.386;2023-07-09T08:36:06;7.82;;;5.40;;
61709;SDS011;47633;51.494;5.386;2023-07-09T08:38:31;10.00;;;5.63;;
61709;SDS011;47633;51.494;5.386;2023-07-09T08:40:58;10.48;;;5.70;;
61709;SDS011;47633;51.494;5.386;2023-07-09T08:49:22;8.15;;;5.43;;
61709;SDS011;47633;51.494;5.386;2023-07-09T08:51:55;8.02;;;5.35;;
61709;SDS011;47633;51.494;5.386;2023-07-09T08:54:28;7.88;;;5.32;;
61709;SDS011;47633;51.494;5.386;2023-07-09T08:59:24;7.90;;;5.35;;
61709;SDS011;47633;51.494;5.386;2023-07-09T09:01:54;7.10;;;4.97;;
61709;SDS011;47633;51.494;5.386;2023-07-09T09:04:26;7.87;;;5.63;;
61709;SDS011;47633;51.494;5.386;2023-07-09T09:06:57;7.85;;;5.50;;
61709;SDS011;47633;51.494;5.386;2023-07-09T09:09:29;8.05;;;4.97;;
61709;SDS011;47633;51.494;5.386;2023-07-09T09:12:16;7.10;;;5.40;;
61709;SDS011;47633;51.494;5.386;2023-07-09T09:14:46;7.93;;;5.65;;
61709;SDS011;47633;51.494;5.386;2023-07-09T09:17:23;9.02;;;5.00;;
61709;SDS011;47633;51.494;5.386;2023-07-09T09:22:48;7.07;;;5.10;;
61709;SDS011;47633;51.494;5.386;2023-07-09T09:25:33;7.53;;;5.00;;
61709;SDS011;47633;51.494;5.386;2023-07-09T09:28:02;6.50;;;4.70;;
61709;SDS011;47633;51.494;5.386;2023-07-09T09:30:28;8.00;;;5.60;;
61709;SDS011;47633;51.494;5.386;2023-07-09T09:32:56;7.50;;;5.03;;
61709;SDS011;47633;51.494;5.386;2023-07-09T09:35:29;8.75;;;5.47;;
61709;SDS011;47633;51.494;5.386;2023-07-09T09:37:57;7.15;;;4.85;;
61709;SDS011;47633;51.494;5.386;2023-07-09T09:40:24;7.55;;;5.22;;
61709;SDS011;47633;51.494;5.386;2023-07-09T09:42:51;7.72;;;4.78;;
61709;SDS011;47633;51.494;5.386;2023-07-09T09:45:43;7.68;;;4.85;;
61709;SDS011;47633;51.494;5.386;2023-07-09T09:48:19;6.30;;;4.45;;
61709;SDS011;47633;51.494;5.386;2023-07-09T09:50:57;7.30;;;4.97;;
61709;SDS011;47633;51.494;5.386;2023-07-09T09:53:26;8.10;;;5.00;;
61709;SDS011;47633;51.494;5.386;2023-07-09T09:55:54;7.70;;;5.18;;
61709;SDS011;47633;51.494;5.386;2023-07-09T09:58:24;7.53;;;5.03;;
61709;SDS011;47633;51.494;5.386;2023-07-09T10:00:52;8.23;;;5.00;;
61709;SDS011;47633;51.494;5.386;2023-07-09T10:03:20;7.43;;;5.40;;
61709;SDS011;47633;51.494;5.386;2023-07-09T10:05:52;8.48;;;5.25;;
61709;SDS011;47633;51.494;5.386;2023-07-09T10:08:26;7.28;;;4.93;;
61709;SDS011;47633;51.494;5.386;2023-07-09T10:10:57;10.70;;;5.15;;
61709;SDS011;47633;51.494;5.386;2023-07-09T10:13:47;7.82;;;4.57;;
61709;SDS011;47633;51.494;5.386;2023-07-09T10:21:37;6.88;;;4.57;;
61709;SDS011;47633;51.494;5.386;2023-07-09T10:27:13;7.03;;;4.72;;
61709;SDS011;47633;51.494;5.386;2023-07-09T10:29:59;8.68;;;4.93;;
61709;SDS011;47633;51.494;5.386;2023-07-09T10:32:57;9.48;;;4.88;;
61709;SDS011;47633;51.494;5.386;2023-07-09T10:36:21;7.35;;;4.60;;
61709;SDS011;47633;51.494;5.386;2023-07-09T10:38:41;7.68;;;4.45;;
61709;SDS011;47633;51.494;5.386;2023-07-09T10:41:13;6.82;;;5.00;;
61709;SDS011;47633;51.494;5.386;2023-07-09T10:43:44;13.93;;;6.15;;
61709;SDS011;47633;51.494;5.386;2023-07-09T10:46:18;13.30;;;6.60;;
61709;SDS011;47633;51.494;5.386;2023-07-09T10:48:53;12.68;;;6.68;;
61709;SDS011;47633;51.494;5.386;2023-07-09T10:56:29;10.25;;;5.78;;
61709;SDS011;47633;51.494;5.386;2023-07-09T10:59:03;14.38;;;6.25;;
61709;SDS011;47633;51.494;5.386;2023-07-09T11:04:53;9.20;;;4.80;;
61709;SDS011;47633;51.494;5.386;2023-07-09T11:08:04;14.52;;;5.80;;
61709;SDS011;47633;51.494;5.386;2023-07-09T11:10:37;9.50;;;4.82;;
61709;SDS011;47633;51.494;5.386;2023-07-09T11:16:04;9.73;;;5.10;;
61709;SDS011;47633;51.494;5.386;2023-07-09T11:18:33;8.20;;;5.07;;
61709;SDS011;47633;51.494;5.386;2023-07-09T11:21:05;7.97;;;5.00;;
61709;SDS011;47633;51.494;5.386;2023-07-09T11:23:49;7.43;;;4.80;;
61709;SDS011;47633;51.494;5.386;2023-07-09T11:28:52;7.80;;;4.85;;
61709;SDS011;47633;51.494;5.386;2023-07-09T11:31:22;9.45;;;4.80;;
61709;SDS011;47633;51.494;5.386;2023-07-09T11:33:56;9.85;;;5.13;;
61709;SDS011;47633;51.494;5.386;2023-07-09T11:36:27;7.82;;;5.22;;
61709;SDS011;47633;51.494;5.386;2023-07-09T11:38:54;9.13;;;5.20;;
61709;SDS011;47633;51.494;5.386;2023-07-09T11:41:25;10.15;;;5.35;;
61709;SDS011;47633;51.494;5.386;2023-07-09T11:44:18;9.23;;;4.85;;
61709;SDS011;47633;51.494;5.386;2023-07-09T11:46:50;9.13;;;4.90;;
61709;SDS011;47633;51.494;5.386;2023-07-09T11:49:17;10.13;;;4.85;;
61709;SDS011;47633;51.494;5.386;2023-07-09T11:51:46;8.07;;;4.63;;
61709;SDS011;47633;51.494;5.386;2023-07-09T11:54:18;10.30;;;5.05;;
61709;SDS011;47633;51.494;5.386;2023-07-09T11:56:52;7.85;;;4.88;;
61709;SDS011;47633;51.494;5.386;2023-07-09T11:59:22;8.90;;;5.32;;
61709;SDS011;47633;51.494;5.386;2023-07-09T12:01:47;8.60;;;4.95;;
61709;SDS011;47633;51.494;5.386;2023-07-09T12:04:18;10.63;;;5.07;;
61709;SDS011;47633;51.494;5.386;2023-07-09T12:06:47;8.15;;;5.55;;
61709;SDS011;47633;51.494;5.386;2023-07-09T12:09:19;9.02;;;5.50;;
61709;SDS011;47633;51.494;5.386;2023-07-09T12:11:49;11.83;;;5.77;;
61709;SDS011;47633;51.494;5.386;2023-07-09T12:14:19;8.15;;;5.68;;
61709;SDS011;47633;51.494;5.386;2023-07-09T12:16:47;8.82;;;5.20;;
61709;SDS011;47633;51.494;5.386;2023-07-09T12:19:16;8.65;;;5.28;;
61709;SDS011;47633;51.494;5.386;2023-07-09T12:21:43;8.85;;;5.15;;
61709;SDS011;47633;51.494;5.386;2023-07-09T12:24:57;8.15;;;5.45;;
61709;SDS011;47633;51.494;5.386;2023-07-09T12:27:02;8.70;;;5.50;;
61709;SDS011;47633;51.494;5.386;2023-07-09T12:29:41;10.48;;;5.53;;
61709;SDS011;47633;51.494;5.386;2023-07-09T12:32:11;8.63;;;5.55;;
61709;SDS011;47633;51.494;5.386;2023-07-09T12:34:38;9.02;;;5.47;;
61709;SDS011;47633;51.494;5.386;2023-07-09T12:37:03;11.30;;;5.32;;
61709;SDS011;47633;51.494;5.386;2023-07-09T12:39:29;8.30;;;5.13;;
61709;SDS011;47633;51.494;5.386;2023-07-09T12:42:01;9.50;;;5.20;;
61709;SDS011;47633;51.494;5.386;2023-07-09T12:44:29;8.68;;;5.43;;
61709;SDS011;47633;51.494;5.386;2023-07-09T12:46:56;6.15;;;4.55;;
61709;SDS011;47633;51.494;5.386;2023-07-09T12:51:47;9.07;;;5.83;;
61709;SDS011;47633;51.494;5.386;2023-07-09T12:54:13;7.55;;;5.25;;
61709;SDS011;47633;51.494;5.386;2023-07-09T12:56:41;8.88;;;5.55;;
61709;SDS011;47633;51.494;5.386;2023-07-09T12:59:26;10.18;;;5.90;;
61709;SDS011;47633;51.494;5.386;2023-07-09T13:02:07;6.95;;;5.57;;
61709;SDS011;47633;51.494;5.386;2023-07-09T13:04:40;8.02;;;6.55;;
61709;SDS011;47633;51.494;5.386;2023-07-09T13:07:24;9.98;;;6.20;;
61709;SDS011;47633;51.494;5.386;2023-07-09T13:09:54;10.77;;;6.55;;
61709;SDS011;47633;51.494;5.386;2023-07-09T13:12:22;8.70;;;6.88;;
61709;SDS011;47633;51.494;5.386;2023-07-09T13:14:55;10.50;;;6.53;;
61709;SDS011;47633;51.494;5.386;2023-07-09T13:17:21;9.73;;;6.60;;
61709;SDS011;47633;51.494;5.386;2023-07-09T13:19:46;8.73;;;6.22;;
61709;SDS011;47633;51.494;5.386;2023-07-09T13:22:15;9.40;;;6.65;;
61709;SDS011;47633;51.494;5.386;2023-07-09T13:24:44;9.27;;;6.65;;
61709;SDS011;47633;51.494;5.386;2023-07-09T13:27:14;9.75;;;6.60;;
61709;SDS011;47633;51.494;5.386;2023-07-09T13:29:40;8.32;;;6.05;;
61709;SDS011;47633;51.494;5.386;2023-07-09T13:32:10;9.02;;;6.30;;
61709;SDS011;47633;51.494;5.386;2023-07-09T13:34:36;8.57;;;6.03;;
61709;SDS011;47633;51.494;5.386;2023-07-09T13:37:04;10.18;;;6.80;;
61709;SDS011;47633;51.494;5.386;2023-07-09T13:39:30;8.90;;;6.30;;
61709;SDS011;47633;51.494;5.386;2023-07-09T13:41:56;7.25;;;6.13;;
61709;SDS011;47633;51.494;5.386;2023-07-09T13:44:26;9.93;;;6.45;;
61709;SDS011;47633;51.494;5.386;2023-07-09T13:46:53;8.85;;;6.50;;
61709;SDS011;47633;51.494;5.386;2023-07-09T13:49:20;8.20;;;6.30;;
61709;SDS011;47633;51.494;5.386;2023-07-09T13:51:48;10.63;;;6.57;;
61709;SDS011;47633;51.494;5.386;2023-07-09T13:56:44;11.23;;;6.72;;
61709;SDS011;47633;51.494;5.386;2023-07-09T13:59:18;12.07;;;6.82;;
61709;SDS011;47633;51.494;5.386;2023-07-09T14:01:45;8.80;;;6.07;;
61709;SDS011;47633;51.494;5.386;2023-07-09T14:04:12;10.45;;;6.40;;
61709;SDS011;47633;51.494;5.386;2023-07-09T14:06:39;9.20;;;6.07;;
61709;SDS011;47633;51.494;5.386;2023-07-09T14:09:06;8.07;;;5.90;;
61709;SDS011;47633;51.494;5.386;2023-07-09T14:11:31;8.68;;;5.82;;
61709;SDS011;47633;51.494;5.386;2023-07-09T14:13:57;10.63;;;6.25;;
61709;SDS011;47633;51.494;5.386;2023-07-09T14:16:23;7.80;;;5.80;;
61709;SDS011;47633;51.494;5.386;2023-07-09T14:18:48;8.13;;;5.40;;
61709;SDS011;47633;51.494;5.386;2023-07-09T14:21:23;7.47;;;5.22;;
61709;SDS011;47633;51.494;5.386;2023-07-09T14:23:51;9.10;;;5.35;;
61709;SDS011;47633;51.494;5.386;2023-07-09T14:26:17;9.35;;;5.43;;
61709;SDS011;47633;51.494;5.386;2023-07-09T14:28:42;6.37;;;4.70;;
61709;SDS011;47633;51.494;5.386;2023-07-09T14:31:13;7.95;;;5.20;;
61709;SDS011;47633;51.494;5.386;2023-07-09T14:33:46;7.50;;;5.15;;
61709;SDS011;47633;51.494;5.386;2023-07-09T14:36:11;7.20;;;4.93;;
61709;SDS011;47633;51.494;5.386;2023-07-09T14:38:36;8.97;;;5.40;;
61709;SDS011;47633;51.494;5.386;2023-07-09T14:41:04;10.35;;;5.10;;
61709;SDS011;47633;51.494;5.386;2023-07-09T14:43:43;8.07;;;5.30;;
61709;SDS011;47633;51.494;5.386;2023-07-09T14:46:08;11.03;;;5.40;;
61709;SDS011;47633;51.494;5.386;2023-07-09T14:48:34;8.20;;;4.80;;
61709;SDS011;47633;51.494;5.386;2023-07-09T14:50:59;8.40;;;4.83;;
61709;SDS011;47633;51.494;5.386;2023-07-09T14:53:25;9.73;;;4.93;;
61709;SDS011;47633;51.494;5.386;2023-07-09T14:55:52;8.93;;;4.82;;
61709;SDS011;47633;51.494;5.386;2023-07-09T14:58:20;7.35;;;4.85;;
61709;SDS011;47633;51.494;5.386;2023-07-09T15:00:47;5.95;;;4.38;;
61709;SDS011;47633;51.494;5.386;2023-07-09T15:03:18;7.18;;;4.68;;
61709;SDS011;47633;51.494;5.386;2023-07-09T15:05:45;6.70;;;4.72;;
61709;SDS011;47633;51.494;5.386;2023-07-09T15:08:11;7.88;;;4.75;;
61709;SDS011;47633;51.494;5.386;2023-07-09T15:10:38;6.85;;;4.32;;
61709;SDS011;47633;51.494;5.386;2023-07-09T15:13:04;9.70;;;4.57;;
61709;SDS011;47633;51.494;5.386;2023-07-09T15:15:30;7.28;;;4.85;;
61709;SDS011;47633;51.494;5.386;2023-07-09T15:17:56;10.18;;;4.43;;
61709;SDS011;47633;51.494;5.386;2023-07-09T15:20:26;6.88;;;4.50;;
61709;SDS011;47633;51.494;5.386;2023-07-09T15:22:54;7.13;;;4.45;;
61709;SDS011;47633;51.494;5.386;2023-07-09T15:25:24;7.53;;;4.82;;
61709;SDS011;47633;51.494;5.386;2023-07-09T15:27:52;6.80;;;4.22;;
61709;SDS011;47633;51.494;5.386;2023-07-09T15:30:24;6.40;;;4.22;;
61709;SDS011;47633;51.494;5.386;2023-07-09T15:32:55;9.50;;;4.28;;